Time;durP1;ratioP1;P1;durP2;ratioP2;P2;SDS_P1;SDS_P2;PMS_P1;PMS_P2;Temp;Humidity;BMP_temperature;BMP_pressure;BME280_temperature;BME280_humidity;BME280_pressure;Samples;Min_cycle;Max_cycle;Signal;HPM_P1;HPM_P2
2023/08/22 00:00:28;;;;;;;10.45;10.15;;;;;;;-141.02;100.00;38939.19;5113072;28;20279;-63
2023/08/22 00:02:55;;;;;;;10.40;10.10;;;;;;;-141.02;100.00;38960.28;5113282;28;20193;-66
2023/08/22 00:05:22;;;;;;;10.40;10.10;;;;;;;-141.02;100.00;38931.50;5113306;28;20204;-64
2023/08/22 00:07:50;;;;;;;10.10;9.80;;;;;;;-141.02;100.00;38956.44;5113196;28;20204;-66
2023/08/22 00:10:17;;;;;;;9.63;9.32;;;;;;;-141.02;100.00;38998.63;5112829;28;20284;-64
2023/08/22 00:12:45;;;;;;;10.05;9.75;;;;;;;-141.02;100.00;39004.38;5112856;28;20689;-67
2023/08/22 00:15:14;;;;;;;9.82;9.52;;;;;;;-141.02;100.00;39010.13;5112062;28;20189;-66
2023/08/22 00:17:41;;;;;;;9.68;9.38;;;;;;;-141.02;100.00;38983.28;5113047;28;20284;-65
2023/08/22 00:20:11;;;;;;;9.48;9.18;;;;;;;-141.02;100.00;38989.03;5113025;28;20193;-64
2023/08/22 00:22:38;;;;;;;10.00;9.70;;;;;;;-141.02;100.00;38979.47;5112924;28;20193;-65
2023/08/22 00:25:06;;;;;;;9.80;9.50;;;;;;;-141.02;100.00;39010.13;5112909;28;20204;-62
2023/08/22 00:27:34;;;;;;;9.50;9.20;;;;;;;-141.02;100.00;39056.16;5112543;28;20727;-65
2023/08/22 00:30:01;;;;;;;9.68;9.38;;;;;;;-141.02;100.00;39048.50;5112806;28;20200;-66
2023/08/22 00:32:30;;;;;;;9.80;9.50;;;;;;;-141.02;100.00;39031.22;5112826;28;20292;-66
2023/08/22 00:34:57;;;;;;;9.85;9.55;;;;;;;-141.02;100.00;38979.47;5112757;28;20272;-67
2023/08/22 00:37:24;;;;;;;10.20;9.90;;;;;;;-141.02;100.00;38960.28;5112676;28;20325;-67
2023/08/22 00:39:51;;;;;;;10.30;10.00;;;;;;;-141.02;100.00;39027.41;5112414;28;20284;-67
2023/08/22 00:42:19;;;;;;;9.70;9.40;;;;;;;-141.02;100.00;39127.09;5112722;28;20221;-65
2023/08/22 00:44:46;;;;;;;10.00;9.70;;;;;;;-141.02;100.00;39058.06;5112631;28;20197;-67
2023/08/22 00:47:14;;;;;;;10.77;10.48;;;;;;;-141.02;100.00;38983.28;5112640;28;20276;-65
2023/08/22 00:49:42;;;;;;;10.00;9.70;;;;;;;-141.02;100.00;38987.13;5112260;28;20199;-64
2023/08/22 00:52:10;;;;;;;10.90;10.60;;;;;;;-141.02;100.00;38990.97;5112298;28;20197;-67
2023/08/22 00:54:37;;;;;;;10.95;10.65;;;;;;;-141.02;100.00;38967.94;5112585;28;20669;-67
2023/08/22 00:57:04;;;;;;;10.40;10.10;;;;;;;-141.02;100.00;38990.97;5112135;28;20324;-65
2023/08/22 00:59:31;;;;;;;10.18;9.88;;;;;;;-141.02;100.00;38990.97;5112196;28;20571;-67
2023/08/22 01:01:58;;;;;;;10.48;10.18;;;;;;;-141.02;100.00;38975.63;5112128;28;20193;-64
2023/08/22 01:04:26;;;;;;;10.90;10.60;;;;;;;-141.02;100.00;38979.47;5112193;28;20195;-65
2023/08/22 01:07:03;;;;;;;10.65;10.35;;;;;;;-141.02;100.00;38964.13;5112109;28;20193;-67
2023/08/22 01:09:36;;;;;;;10.10;9.80;;;;;;;-141.02;100.00;39017.81;5112501;28;20243;-66
2023/08/22 01:12:08;;;;;;;10.05;9.75;;;;;;;-141.02;100.00;39017.81;5112689;28;20193;-66
2023/08/22 01:14:44;;;;;;;10.18;9.88;;;;;;;-141.02;100.00;38992.88;5112126;28;20223;-67
2023/08/22 01:17:14;;;;;;;10.00;9.70;;;;;;;-141.02;100.00;39023.56;5112552;28;20212;-67
2023/08/22 01:19:41;;;;;;;9.88;9.57;;;;;;;-141.02;100.00;39029.31;5112329;28;20230;-66
2023/08/22 01:22:10;;;;;;;10.50;10.20;;;;;;;-141.02;100.00;39075.34;5112165;28;20284;-66
2023/08/22 01:24:37;;;;;;;10.48;10.18;;;;;;;-141.02;100.00;39113.69;5112277;28;20197;-64
2023/08/22 01:27:06;;;;;;;10.00;9.70;;;;;;;-141.02;100.00;39167.38;5113255;28;20659;-66
2023/08/22 01:29:40;;;;;;;10.10;9.80;;;;;;;-141.02;100.00;39332.31;5116580;28;20203;-66
2023/08/22 01:32:17;;;;;;;9.00;8.80;;;;;;;-141.02;100.00;39541.34;5116226;28;20212;-67
2023/08/22 01:34:45;;;;;;;9.00;8.80;;;;;;;-141.02;100.00;39556.69;5115952;28;20193;-66
2023/08/22 01:37:14;;;;;;;9.30;9.00;;;;;;;-141.02;100.00;39658.34;5116080;28;20224;-64
2023/08/22 01:39:44;;;;;;;8.80;8.60;;;;;;;-141.02;100.00;39717.78;5116114;27;20235;-65
2023/08/22 01:42:11;;;;;;;9.40;9.10;;;;;;;-141.02;100.00;39662.16;5116084;28;20200;-64
2023/08/22 01:44:38;;;;;;;9.50;9.20;;;;;;;-141.02;100.00;39619.97;5115866;28;20207;-67
2023/08/22 01:47:05;;;;;;;9.15;8.95;;;;;;;-141.02;100.00;39596.97;5115654;28;20581;-67
2023/08/22 01:49:37;;;;;;;9.15;8.95;;;;;;;-141.02;100.00;39696.69;5115672;28;20193;-64
2023/08/22 01:52:04;;;;;;;8.90;8.70;;;;;;;-141.02;100.00;39704.38;5115583;28;20182;-66
2023/08/22 01:54:33;;;;;;;9.65;9.35;;;;;;;-141.02;100.00;39485.72;5115505;28;20284;-66
2023/08/22 01:57:00;;;;;;;9.10;8.90;;;;;;;-141.02;100.00;39667.94;5115229;28;20715;-66
2023/08/22 01:59:27;;;;;;;9.68;9.38;;;;;;;-141.02;100.00;39428.19;5115758;28;20181;-66
2023/08/22 02:01:54;;;;;;;10.20;9.90;;;;;;;-141.02;100.00;39322.72;5115383;28;20591;-67
2023/08/22 02:04:21;;;;;;;9.38;9.07;;;;;;;-141.02;100.00;39614.22;5115355;28;20720;-65
2023/08/22 02:06:48;;;;;;;9.05;8.85;;;;;;;-141.02;100.00;39696.69;5115267;28;20570;-65
2023/08/22 02:09:15;;;;;;;9.25;9.05;;;;;;;-141.02;100.00;39731.22;5115234;28;20196;-65
2023/08/22 02:11:43;;;;;;;9.15;8.95;;;;;;;-141.02;100.00;39815.59;5115599;28;20197;-66
2023/08/22 02:14:10;;;;;;;8.98;8.77;;;;;;;-141.02;100.00;39736.97;5115396;28;20215;-67
2023/08/22 02:16:37;;;;;;;8.95;8.75;;;;;;;-141.02;100.00;39690.94;5115366;28;20220;-67
2023/08/22 02:19:05;;;;;;;9.00;8.80;;;;;;;-141.02;100.00;39604.63;5115361;28;20272;-65
2023/08/22 02:21:32;;;;;;;9.07;8.88;;;;;;;-141.02;100.00;39635.31;5115592;28;20193;-64
2023/08/22 02:23:59;;;;;;;9.48;9.18;;;;;;;-141.02;100.00;39727.38;5115222;28;20630;-62
2023/08/22 02:26:26;;;;;;;9.25;9.02;;;;;;;-141.02;100.00;39953.72;5114916;28;20715;-64
2023/08/22 02:28:54;;;;;;;8.80;8.60;;;;;;;-141.02;100.00;40172.38;5115423;28;20197;-66
2023/08/22 02:31:22;;;;;;;8.68;8.48;;;;;;;-141.02;100.00;40350.78;5114858;28;20193;-63
2023/08/22 02:33:49;;;;;;;8.00;7.80;;;;;;;-141.02;100.00;40701.84;5114742;28;20189;-64
2023/08/22 02:36:16;;;;;;;8.05;7.85;;;;;;;-141.02;100.00;40905.22;5114712;28;20232;-61
2023/08/22 02:38:43;;;;;;;8.20;8.00;;;;;;;-141.02;100.00;41377.25;5113846;28;20224;-66
2023/08/22 02:41:10;;;;;;;8.00;7.80;;;;;;;-141.02;100.00;42123.78;5114697;28;20662;-66
2023/08/22 02:43:37;;;;;;;7.60;7.40;;;;;;;-141.02;100.00;43066.31;5114533;28;20195;-66
2023/08/22 02:46:05;;;;;;;7.97;7.78;;;;;;;-141.02;100.00;43922.69;5114878;28;20284;-65
2023/08/22 02:48:32;;;;;;;7.32;7.13;;;;;;;-141.02;100.00;44573.75;5114763;28;20200;-66
2023/08/22 02:50:59;;;;;;;7.10;6.90;;;;;;;-141.02;100.00;45645.69;5114524;27;20193;-65
2023/08/22 02:53:26;;;;;;;7.18;6.97;;;;;;;-141.02;100.00;47254.25;5114409;28;20233;-66
2023/08/22 02:55:53;;;;;;;6.70;6.50;;;;;;;-141.02;100.00;48273.22;5114337;28;20189;-66
2023/08/22 02:58:20;;;;;;;6.20;6.10;;;;;;;-141.02;100.00;49419.44;5114489;28;20729;-64
2023/08/22 03:00:48;;;;;;;6.72;6.53;;;;;;;-141.02;100.00;49259.78;5114557;28;20272;-65
2023/08/22 03:03:16;;;;;;;7.28;7.07;;;;;;;-141.02;100.00;47196.59;5114526;28;20272;-67
2023/08/22 03:05:43;;;;;;;6.63;6.43;;;;;;;-141.02;100.00;46362.44;5114300;28;20280;-66
2023/08/22 03:08:10;;;;;;;7.13;6.93;;;;;;;-141.02;100.00;45263.38;5114085;28;20189;-66
2023/08/22 03:10:37;;;;;;;7.15;6.95;;;;;;;-141.02;100.00;44339.44;5114493;28;20277;-65
2023/08/22 03:13:04;;;;;;;7.70;7.50;;;;;;;-141.02;100.00;44299.09;5114119;28;20284;-63
2023/08/22 03:15:31;;;;;;;7.85;7.65;;;;;;;-141.02;100.00;44456.59;5114094;28;20200;-63
2023/08/22 03:17:58;;;;;;;7.72;7.53;;;;;;;-141.02;100.00;44642.91;5114106;28;20228;-58
2023/08/22 03:20:27;;;;;;;7.90;7.70;;;;;;;-141.02;100.00;44944.47;5114152;28;20257;-61
2023/08/22 03:22:54;;;;;;;8.18;7.97;;;;;;;-141.02;100.00;45263.38;5113819;28;20283;-66
2023/08/22 03:25:21;;;;;;;8.00;7.80;;;;;;;-141.02;100.00;45711.03;5113744;28;20203;-62
2023/08/22 03:27:48;;;;;;;8.00;7.80;;;;;;;-141.02;100.00;47027.44;5113737;28;20690;-61
2023/08/22 03:30:15;;;;;;;7.70;7.50;;;;;;;-141.02;100.00;48907.81;5114002;28;20225;-63
2023/08/22 03:32:42;;;;;;;7.60;7.40;;;;;;;-141.02;100.00;51335.78;5113627;28;20289;-59
2023/08/22 03:35:09;;;;;;;7.53;7.32;;;;;;;-141.02;100.00;53060.66;5113756;28;20630;-62
2023/08/22 03:37:37;;;;;;;7.40;7.20;;;;;;;-141.02;100.00;55033.00;5113730;28;20225;-60
2023/08/22 03:40:05;;;;;;;7.40;7.20;;;;;;;-141.02;100.00;55772.94;5113461;28;20289;-59
2023/08/22 03:42:32;;;;;;;7.45;7.25;;;;;;;-141.02;100.00;56759.78;5113772;28;20370;-59
2023/08/22 03:44:59;;;;;;;7.28;7.07;;;;;;;-141.02;100.00;57253.28;5113583;28;20283;-64
2023/08/22 03:47:26;;;;;;;7.60;7.40;;;;;;;-141.02;100.00;57500.06;5113321;28;20284;-66
2023/08/22 03:49:53;;;;;;;7.60;7.40;;;;;;;-141.02;100.00;57006.53;5113595;28;20195;-65
2023/08/22 03:52:20;;;;;;;7.10;6.90;;;;;;;-141.02;100.00;57746.88;5113625;28;20239;-63
2023/08/22 03:54:48;;;;;;;7.18;6.97;;;;;;;-141.02;100.00;58981.19;5113478;28;20201;-62
2023/08/22 03:57:15;;;;;;;7.35;7.15;;;;;;;-141.02;100.00;59228.09;5113537;28;20252;-63
2023/08/22 03:59:43;;;;;;;7.40;7.20;;;;;;;-141.02;100.00;59228.09;5113083;28;20236;-62
2023/08/22 04:02:10;;;;;;;7.80;7.60;;;;;;;-141.02;100.00;59968.94;5113358;28;20556;-63
2023/08/22 04:04:37;;;;;;;8.27;8.07;;;;;;;-141.02;100.00;61204.03;5113233;28;20292;-63
2023/08/22 04:07:04;;;;;;;7.45;7.25;;;;;;;-141.02;100.00;62439.59;5113240;28;20225;-65
2023/08/22 04:09:31;;;;;;;7.18;6.97;;;;;;;-141.02;100.00;64664.72;5112977;28;20676;-62
2023/08/22 04:12:00;;;;;;;7.40;7.20;;;;;;;-141.02;100.00;63428.38;5112892;28;20201;-60
2023/08/22 04:14:27;;;;;;;7.90;7.70;;;;;;;-141.02;100.00;60215.94;5113068;28;20763;-63
2023/08/22 04:16:54;;;;;;;8.55;8.35;;;;;;;-141.02;100.00;57500.06;5112694;28;20764;-61
2023/08/22 04:19:21;;;;;;;9.43;9.20;;;;;;;-141.02;100.00;54539.81;5112986;28;20192;-64
2023/08/22 04:21:48;;;;;;;9.70;9.40;;;;;;;-141.02;100.00;52914.31;5113071;28;20193;-62
2023/08/22 04:24:15;;;;;;;9.80;9.50;;;;;;;-141.02;100.00;51247.25;5112686;28;20659;-59
2023/08/22 04:26:42;;;;;;;9.85;9.55;;;;;;;-141.02;100.00;50766.16;5112561;28;20284;-66
2023/08/22 04:29:10;;;;;;;10.25;9.95;;;;;;;-141.02;100.00;49432.88;5112889;28;20193;-61
2023/08/22 04:31:37;;;;;;;11.23;10.93;;;;;;;-141.02;100.00;49061.66;5112574;28;20400;-63
2023/08/22 04:34:04;;;;;;;10.88;10.57;;;;;;;-141.02;100.00;48277.06;5112822;28;20280;-64
2023/08/22 04:36:31;;;;;;;11.75;11.45;;;;;;;-141.02;100.00;47838.69;5112449;28;20195;-64
2023/08/22 04:38:58;;;;;;;12.48;12.07;;;;;;;-141.02;100.00;47675.25;5112773;28;20619;-66
2023/08/22 04:41:25;;;;;;;13.18;12.77;;;;;;;-141.02;100.00;46842.91;5112470;28;20654;-63
2023/08/22 04:43:52;;;;;;;12.85;12.45;;;;;;;-141.02;100.00;46097.25;5112701;28;20276;-61
2023/08/22 04:46:20;;;;;;;14.02;13.63;;;;;;;-141.02;100.00;45784.03;5112653;28;20196;-61
2023/08/22 04:48:47;;;;;;;14.77;14.27;;;;;;;-141.02;100.00;44836.91;5112334;28;20207;-60
2023/08/22 04:51:14;;;;;;;14.93;14.43;;;;;;;-141.02;100.00;44544.94;5112606;28;20271;-60
2023/08/22 04:53:41;;;;;;;14.95;14.45;;;;;;;-141.02;100.00;44289.50;5112501;28;20243;-65
2023/08/22 04:56:08;;;;;;;15.07;14.57;;;;;;;-141.02;100.00;44268.38;5112814;28;20199;-66
2023/08/22 04:58:35;;;;;;;14.60;14.10;;;;;;;-141.02;100.00;44080.16;5112199;28;20257;-60
2023/08/22 05:01:02;;;;;;;14.55;14.05;;;;;;;-141.02;100.00;44103.22;5112344;28;20276;-64
2023/08/22 05:03:31;;;;;;;13.73;13.23;;;;;;;-141.02;100.00;43980.31;5111943;28;20579;-64
2023/08/22 05:05:58;;;;;;;13.90;13.40;;;;;;;-141.02;100.00;43970.69;5112463;28;20323;-62
2023/08/22 05:08:25;;;;;;;13.85;13.35;;;;;;;-141.02;100.00;44068.63;5112388;28;20196;-66
2023/08/22 05:10:52;;;;;;;13.90;13.40;;;;;;;-141.02;100.00;44210.75;5112669;28;20276;-66
2023/08/22 05:13:19;;;;;;;13.40;13.00;;;;;;;-141.02;100.00;44183.88;5112329;28;20288;-62
2023/08/22 05:15:49;;;;;;;13.18;12.77;;;;;;;-141.02;100.00;44518.06;5112094;28;20647;-63
2023/08/22 05:18:16;;;;;;;13.68;13.27;;;;;;;-141.02;100.00;44362.47;5112213;28;20312;-63
2023/08/22 05:20:44;;;;;;;13.38;12.98;;;;;;;-141.02;100.00;44281.81;5111981;28;20193;-65
2023/08/22 05:23:11;;;;;;;13.90;13.40;;;;;;;-141.02;100.00;44114.72;5112311;28;20285;-66
2023/08/22 05:25:38;;;;;;;14.30;13.80;;;;;;;-141.02;100.00;44068.63;5112272;28;20228;-66
2023/08/22 05:28:06;;;;;;;14.35;13.85;;;;;;;-141.02;100.00;43964.94;5111938;28;20193;-67
2023/08/22 05:30:33;;;;;;;14.57;14.07;;;;;;;-141.02;100.00;43772.91;5112217;28;20575;-66
2023/08/22 05:33:00;;;;;;;14.35;13.85;;;;;;;-141.02;100.00;43584.72;5111894;28;20235;-66
2023/08/22 05:35:27;;;;;;;14.40;13.90;;;;;;;-141.02;100.00;43575.13;5111844;28;20189;-63
2023/08/22 05:37:55;;;;;;;14.98;14.48;;;;;;;-141.02;100.00;43701.84;5112079;28;20311;-66
2023/08/22 05:40:22;;;;;;;15.38;14.77;;;;;;;-141.02;100.00;43594.31;5111858;28;20250;-65
2023/08/22 05:42:50;;;;;;;15.57;14.98;;;;;;;-141.02;100.00;43767.16;5112144;28;20225;-64
2023/08/22 05:45:17;;;;;;;14.80;14.30;;;;;;;-141.02;100.00;43732.56;5111842;28;20288;-66
2023/08/22 05:47:44;;;;;;;13.73;13.32;;;;;;;-141.02;100.00;44030.22;5112043;28;20287;-60
2023/08/22 05:50:12;;;;;;;14.50;14.00;;;;;;;-141.02;100.00;43747.94;5111722;28;20579;-66
2023/08/22 05:52:39;;;;;;;14.82;14.32;;;;;;;-141.02;100.00;43880.44;5111985;28;20201;-64
2023/08/22 05:55:08;;;;;;;15.07;14.48;;;;;;;-141.02;100.00;43761.38;5112056;28;20275;-67
2023/08/22 05:57:35;;;;;;;15.25;14.65;;;;;;;-141.02;100.00;43642.31;5111568;28;20320;-64
2023/08/22 06:00:03;;;;;;;15.35;14.75;;;;;;;-141.02;100.00;43778.66;5111844;28;20201;-66
2023/08/22 06:02:30;;;;;;;15.65;15.05;;;;;;;-141.02;100.00;43657.69;5111935;28;20193;-65
2023/08/22 06:04:57;;;;;;;15.60;15.00;;;;;;;-141.02;100.00;43842.03;5112067;28;20246;-63
2023/08/22 06:07:25;;;;;;;15.60;15.00;;;;;;;-141.02;100.00;43759.47;5111895;28;20193;-64
2023/08/22 06:09:53;;;;;;;15.73;15.13;;;;;;;-141.02;100.00;43849.72;5111921;28;20250;-64
2023/08/22 06:12:24;;;;;;;15.35;14.75;;;;;;;-141.02;100.00;43880.44;5111546;28;20254;-66
2023/08/22 06:14:51;;;;;;;15.73;15.13;;;;;;;-141.02;100.00;43861.25;5114181;28;20274;-66
2023/08/22 06:17:18;;;;;;;15.90;15.25;;;;;;;-141.02;100.00;43772.91;5115347;28;20223;-64
2023/08/22 06:19:48;;;;;;;15.40;14.80;;;;;;;-141.02;100.00;43817.06;5115116;28;20193;-64
2023/08/22 06:22:15;;;;;;;16.15;15.45;;;;;;;-141.02;100.00;43876.59;5115350;28;20205;-66
2023/08/22 06:24:42;;;;;;;15.90;15.30;;;;;;;-141.02;100.00;43809.38;5115360;28;20283;-65
2023/08/22 06:27:09;;;;;;;16.25;15.55;;;;;;;-141.02;100.00;43711.47;5115239;28;20200;-66
2023/08/22 06:29:37;;;;;;;16.15;15.55;;;;;;;-141.02;100.00;43824.75;5114898;28;20284;-67
2023/08/22 06:32:05;;;;;;;16.13;15.52;;;;;;;-141.02;100.00;43730.66;5114834;28;20280;-63
2023/08/22 06:34:32;;;;;;;16.25;15.55;;;;;;;-141.02;100.00;43932.28;5114784;28;20193;-67
2023/08/22 06:36:59;;;;;;;16.42;15.73;;;;;;;-141.02;100.00;43770.97;5115058;28;20280;-67
2023/08/22 06:39:26;;;;;;;16.95;16.25;;;;;;;-141.02;100.00;43884.28;5114965;28;20256;-66
2023/08/22 06:41:54;;;;;;;17.30;16.50;;;;;;;-141.02;100.00;43826.66;5114988;28;20220;-66
2023/08/22 06:44:21;;;;;;;17.08;16.38;;;;;;;-141.02;99.23;43715.28;5114619;28;20288;-65
2023/08/22 06:46:49;;;;;;;17.35;16.55;;;;;;;-141.02;98.10;43642.31;5114862;28;20232;-65
2023/08/22 06:49:16;;;;;;;16.75;16.05;;;;;;;-141.02;97.59;43563.59;5114865;28;20215;-64
2023/08/22 06:51:43;;;;;;;17.27;16.58;;;;;;;-141.02;97.22;43711.47;5114818;28;20247;-65
2023/08/22 06:54:10;;;;;;;16.70;16.00;;;;;;;-141.02;95.91;43663.44;5114460;28;20280;-66
2023/08/22 06:56:37;;;;;;;16.10;15.40;;;;;;;-141.02;94.82;43795.94;5114146;28;20190;-66
2023/08/22 06:59:04;;;;;;;16.85;16.15;;;;;;;-141.02;92.70;43770.97;5114536;28;20212;-65
2023/08/22 07:01:31;;;;;;;17.23;16.42;;;;;;;-141.02;91.82;43905.41;5114597;28;20201;-64
2023/08/22 07:03:59;;;;;;;17.90;17.10;;;;;;;-141.02;89.73;43874.69;5114263;28;20225;-66
2023/08/22 07:06:26;;;;;;;17.33;16.52;;;;;;;-141.02;91.79;43742.19;5114319;28;20193;-65
2023/08/22 07:08:54;;;;;;;17.20;16.40;;;;;;;-141.02;89.22;43888.13;5114427;28;20197;-64
2023/08/22 07:11:21;;;;;;;17.73;16.92;;;;;;;-141.02;89.18;43742.19;5114371;28;20228;-65
2023/08/22 07:13:50;;;;;;;17.50;16.70;;;;;;;-141.02;86.89;44057.13;5114293;28;20609;-63
2023/08/22 07:16:17;;;;;;;17.90;17.10;;;;;;;-141.02;83.37;44087.84;5114255;28;20280;-64
2023/08/22 07:18:44;;;;;;;17.05;16.35;;;;;;;-141.02;82.78;44291.41;5114179;28;20307;-66
2023/08/22 07:21:12;;;;;;;17.65;16.85;;;;;;;-141.02;82.09;44437.38;5113843;28;20270;-59
2023/08/22 07:23:39;;;;;;;17.55;16.75;;;;;;;-141.02;81.21;44470.03;5113864;28;20595;-66
2023/08/22 07:26:06;;;;;;;17.70;16.90;;;;;;;-141.02;76.89;44406.66;5113874;28;20224;-60
2023/08/22 07:28:34;;;;;;;17.42;16.63;;;;;;;-141.02;76.82;44327.91;5114122;28;20225;-61
2023/08/22 07:31:04;;;;;;;17.10;16.30;;;;;;;-141.02;77.35;44181.94;5113683;28;20200;-62
2023/08/22 07:33:31;;;;;;;17.13;16.33;;;;;;;-141.02;75.67;44239.56;5114242;28;20232;-67
2023/08/22 07:35:58;;;;;;;17.00;16.20;;;;;;;-141.02;76.54;44260.69;5114022;28;20435;-61
2023/08/22 07:38:27;;;;;;;16.67;15.98;;;;;;;-141.02;76.41;44422.03;5114000;27;20312;-61
2023/08/22 07:40:54;;;;;;;17.40;16.60;;;;;;;-141.02;76.60;45036.69;5113754;28;20256;-64
2023/08/22 07:43:21;;;;;;;17.38;16.58;;;;;;;-141.02;73.86;44944.47;5113712;28;20199;-61
2023/08/22 07:45:48;;;;;;;17.67;16.88;;;;;;;-141.02;73.93;45061.66;5113348;28;20206;-62
2023/08/22 07:48:15;;;;;;;17.02;16.23;;;;;;;-141.02;76.05;44859.97;5113678;28;20193;-67
2023/08/22 07:50:42;;;;;;;17.40;16.60;;;;;;;-141.02;73.84;45090.47;5113623;28;20196;-67
2023/08/22 07:53:09;;;;;;;17.55;16.75;;;;;;;-141.02;74.33;45253.78;5113458;28;20199;-61
2023/08/22 07:55:38;;;;;;;17.48;16.67;;;;;;;-141.02;73.60;45321.00;5113250;28;20284;-61
2023/08/22 07:58:05;;;;;;;17.08;16.27;;;;;;;-141.02;70.77;45563.09;5113209;28;20323;-64
2023/08/22 08:00:33;;;;;;;17.05;16.25;;;;;;;-141.02;70.60;45420.91;5113096;28;20284;-63
2023/08/22 08:03:00;;;;;;;17.58;16.67;;;;;;;-141.02;68.72;45970.44;5113014;28;20197;-60
2023/08/22 08:05:27;;;;;;;17.45;16.58;;;;;;;-141.02;67.70;45532.34;5113370;28;20189;-65
2023/08/22 08:07:54;;;;;;;17.58;16.67;;;;;;;-141.02;67.10;45760.97;5113201;28;20731;-67
2023/08/22 08:10:21;;;;;;;17.20;16.40;;;;;;;-141.02;65.37;45586.13;5113216;28;20193;-60
2023/08/22 08:12:50;;;;;;;17.25;16.45;;;;;;;-141.02;67.23;45497.75;5113152;28;20281;-62
2023/08/22 08:15:17;;;;;;;17.60;16.70;;;;;;;-141.02;66.44;46174.13;5112806;28;20546;-61
2023/08/22 08:17:44;;;;;;;17.40;16.58;;;;;;;-141.02;62.93;45882.03;5113013;27;20193;-62
2023/08/22 08:20:11;;;;;;;17.58;16.67;;;;;;;-141.02;63.28;45589.97;5112806;27;20215;-59
2023/08/22 08:22:38;;;;;;;17.70;16.80;;;;;;;-141.02;62.36;45478.53;5112745;28;20240;-62
2023/08/22 08:25:06;;;;;;;17.50;16.60;;;;;;;-141.02;63.23;45078.94;5113010;28;20189;-63
2023/08/22 08:27:33;;;;;;;17.58;16.67;;;;;;;-141.02;61.20;45543.88;5112967;28;20197;-62
2023/08/22 08:30:05;;;;;;;16.83;16.02;;;;;;;-141.02;59.91;45820.56;5112561;28;20197;-61
2023/08/22 08:32:32;;;;;;;17.48;16.58;;;;;;;-141.02;59.47;46062.66;5112867;27;20217;-62
2023/08/22 08:34:59;;;;;;;17.55;16.65;;;;;;;-141.02;58.31;45932.00;5112503;28;20693;-68
2023/08/22 08:37:28;;;;;;;17.48;16.58;;;;;;;-141.02;57.63;45908.94;5112135;28;20238;-65
2023/08/22 08:39:54;;;;;;;17.17;16.27;;;;;;;-141.02;58.33;45443.97;5112651;28;20224;-67
2023/08/22 08:42:22;;;;;;;17.38;16.48;;;;;;;-141.02;58.15;45340.22;5112442;28;20220;-67
2023/08/22 08:44:51;;;;;;;17.38;16.48;;;;;;;-141.02;57.81;45374.81;5112359;28;20204;-66
2023/08/22 08:47:19;;;;;;;17.13;16.23;;;;;;;-141.02;59.23;45067.44;5112694;28;20189;-63
2023/08/22 08:49:46;;;;;;;17.30;16.40;;;;;;;-141.02;57.81;45309.47;5113209;28;20249;-67
2023/08/22 08:52:15;;;;;;;16.90;16.10;;;;;;;-141.02;57.56;45336.38;5112314;28;20197;-67
2023/08/22 08:54:43;;;;;;;16.77;15.98;;;;;;;-141.02;56.88;45709.09;5112559;28;20193;-67
2023/08/22 08:57:10;;;;;;;17.20;16.30;;;;;;;-141.02;55.05;45720.63;5112392;28;20259;-67
2023/08/22 08:59:38;;;;;;;16.75;15.95;;;;;;;-141.02;55.60;46058.81;5112510;28;20229;-67
2023/08/22 09:02:05;;;;;;;16.95;16.15;;;;;;;-141.02;54.92;46702.63;5112269;28;20204;-66
2023/08/22 09:04:34;;;;;;;16.65;15.85;;;;;;;-141.02;53.15;46120.31;5112476;28;20224;-68
2023/08/22 09:07:02;;;;;;;16.65;15.85;;;;;;;-141.02;51.40;46187.56;5112114;28;20197;-67
2023/08/22 09:09:35;;;;;;;17.65;16.75;;;;;;;-141.02;50.56;46792.94;5112441;28;20193;-68
2023/08/22 09:12:06;;;;;;;16.75;15.95;;;;;;;-141.02;48.62;45755.22;5112415;28;20200;-66
2023/08/22 09:14:33;;;;;;;16.63;15.82;;;;;;;-141.02;49.71;46420.09;5112380;28;20185;-64
2023/08/22 09:17:01;;;;;;;16.75;15.95;;;;;;;-141.02;49.28;46243.28;5112363;28;20650;-67
2023/08/22 09:19:33;;;;;;;16.80;16.00;;;;;;;-141.02;48.34;46147.22;5111917;28;20224;-69
2023/08/22 09:22:03;;;;;;;16.50;15.70;;;;;;;-141.02;48.96;46312.47;5111986;28;20610;-68
2023/08/22 09:24:30;;;;;;;16.67;15.88;;;;;;;-141.02;48.85;46535.41;5112418;28;20197;-69
2023/08/22 09:26:58;;;;;;;16.75;15.95;;;;;;;-141.02;47.78;46312.47;5111960;28;20204;-66
2023/08/22 09:29:28;;;;;;;16.60;15.80;;;;;;;-141.02;48.03;46101.09;5112128;28;20275;-68
2023/08/22 09:32:03;;;;;;;16.58;15.80;;;;;;;-141.02;47.51;46024.22;5112426;28;20276;-67
2023/08/22 09:34:31;;;;;;;16.38;15.63;;;;;;;-141.02;46.64;45889.72;5112137;28;20196;-66
2023/08/22 09:36:59;;;;;;;16.40;15.60;;;;;;;-141.02;46.59;45582.28;5112176;28;20244;-67
2023/08/22 09:39:29;;;;;;;16.58;15.85;;;;;;;-141.02;45.96;45497.75;5111742;28;20789;-68
2023/08/22 09:41:58;;;;;;;30.55;29.13;;;;;;;-141.02;46.12;45290.28;5111855;28;20545;-62
2023/08/22 09:44:26;;;;;;;29.80;28.30;;;;;;;-141.02;45.67;45734.09;5111782;28;20371;-68
2023/08/22 09:46:54;;;;;;;39.08;37.17;;;;;;;-141.02;45.28;45785.97;5112092;28;20292;-64
2023/08/22 09:49:22;;;;;;;26.35;25.05;;;;;;;-141.02;46.27;45697.56;5115458;28;20245;-69
2023/08/22 09:51:51;;;;;;;27.92;26.52;;;;;;;-141.02;45.51;45419.00;5115971;28;20199;-67
2023/08/22 09:54:18;;;;;;;16.67;15.88;;;;;;;-141.02;45.80;45317.16;5115925;28;20280;-66
2023/08/22 09:56:47;;;;;;;16.63;15.82;;;;;;;-141.02;44.54;45324.84;5116085;28;20229;-61
2023/08/22 09:59:15;;;;;;;16.98;16.17;;;;;;;-141.02;44.08;46216.38;5115829;28;20265;-59
2023/08/22 10:01:43;;;;;;;16.95;16.15;;;;;;;-141.02;44.49;45148.09;5115422;28;20716;-59
2023/08/22 10:04:12;;;;;;;17.45;16.65;;;;;;;-141.02;43.82;45420.91;5115744;28;20228;-61
2023/08/22 10:06:40;;;;;;;17.70;16.90;;;;;;;-141.02;43.52;45626.50;5115314;28;20228;-62
2023/08/22 10:09:09;;;;;;;17.48;16.67;;;;;;;-141.02;43.24;46039.59;5115655;28;20577;-60
2023/08/22 10:11:41;;;;;;;17.25;16.45;;;;;;;-141.02;42.04;45059.75;5115549;27;20216;-59
2023/08/22 10:14:14;;;;;;;16.95;16.25;;;;;;;-141.02;43.26;44890.69;5115289;28;20185;-61
2023/08/22 10:16:42;;;;;;;17.42;16.63;;;;;;;-141.02;42.97;45161.56;5115442;28;20211;-66
2023/08/22 10:19:10;;;;;;;33.60;31.80;;;;;;;-141.02;43.05;44906.06;5115349;28;20307;-59
2023/08/22 10:21:43;;;;;;;28.20;26.80;;;;;;;-141.02;42.74;44802.34;5115122;28;20668;-61
2023/08/22 10:24:21;;;;;;;16.75;15.95;;;;;;;-141.02;42.87;44625.63;5115354;28;20192;-61
2023/08/22 10:26:59;;;;;;;16.90;16.10;;;;;;;-141.02;41.63;44560.31;5115355;28;20192;-61
2023/08/22 10:29:33;;;;;;;17.25;16.35;;;;;;;-141.02;41.82;45167.31;5115799;28;20188;-68
2023/08/22 10:32:22;;;;;;;17.25;16.35;;;;;;;-141.02;40.53;44756.22;5114994;28;20212;-62
2023/08/22 10:35:17;;;;;;;17.33;16.42;;;;;;;-141.02;41.77;45722.56;5114921;28;20193;-64
2023/08/22 10:37:47;;;;;;;17.13;16.33;;;;;;;-141.02;41.39;45374.81;5112365;28;20639;-64
2023/08/22 10:40:24;;;;;;;17.27;16.38;;;;;;;-141.02;40.84;45755.22;5114686;28;20254;-68
2023/08/22 10:42:53;;;;;;;16.83;16.02;;;;;;;-141.02;42.31;43586.66;5115106;28;20188;-63
2023/08/22 10:45:21;;;;;;;16.92;16.05;;;;;;;-141.02;43.13;43346.63;5114959;27;20212;-67
2023/08/22 10:48:05;;;;;;;16.92;16.13;;;;;;;-141.02;41.54;44156.97;5114515;28;20721;-61
2023/08/22 10:50:33;;;;;;;16.85;16.05;;;;;;;-141.02;40.79;43907.31;5114970;28;20193;-62
2023/08/22 10:53:12;;;;;;;16.85;16.05;;;;;;;-141.02;40.00;44011.03;5114844;28;20225;-60
2023/08/22 10:55:40;;;;;;;16.65;15.85;;;;;;;-141.02;40.87;44001.44;5114850;28;20615;-63
2023/08/22 10:58:08;;;;;;;16.58;15.77;;;;;;;-141.02;39.94;44218.44;5114549;28;20281;-60
2023/08/22 11:00:36;;;;;;;17.85;16.98;;;;;;;-141.02;39.89;44431.63;5113863;28;20246;-65
2023/08/22 11:03:04;;;;;;;17.75;16.95;;;;;;;-141.02;38.83;44414.34;5114555;28;20272;-63
2023/08/22 11:05:31;;;;;;;16.83;16.13;;;;;;;-141.02;39.37;44379.78;5114552;28;20250;-62